Time;durP1;ratioP1;P1;durP2;ratioP2;P2;SDS_P1;SDS_P2;PMS_P1;PMS_P2;Temp;Humidity;BMP_temperature;BMP_pressure;BME280_temperature;BME280_humidity;BME280_pressure;Samples;Min_cycle;Max_cycle;Signal;HPM_P1;HPM_P2
2022/08/31 00:06:11;;;;;;;3.12;2.30;;;;;;;21.20;58.71;99829.12;4321750;33;34066;-86
2022/08/31 00:08:38;;;;;;;3.33;2.37;;;;;;;21.40;58.41;99823.03;4332394;33;34699;-78
2022/08/31 00:11:08;;;;;;;3.83;2.22;;;;;;;21.50;58.31;99830.25;4332277;33;34085;-83
2022/08/31 00:13:36;;;;;;;4.22;2.53;;;;;;;21.33;58.34;99830.97;4332238;33;35211;-72
2022/08/31 00:16:04;;;;;;;3.65;2.60;;;;;;;21.80;57.74;99830.50;4331784;33;34849;-70
2022/08/31 00:18:31;;;;;;;3.62;2.40;;;;;;;21.76;57.71;99833.06;4317842;33;32538;-85
2022/08/31 00:20:59;;;;;;;3.65;2.70;;;;;;;21.83;57.16;99835.34;4317399;33;34778;-72
2022/08/31 00:23:27;;;;;;;3.45;2.60;;;;;;;22.00;56.58;99831.81;4317183;33;34015;-84
2022/08/31 00:25:54;;;;;;;3.72;2.67;;;;;;;21.75;57.60;99834.22;4317357;33;34480;-70
2022/08/31 00:28:22;;;;;;;4.65;2.60;;;;;;;21.92;56.83;99833.41;4304564;33;33459;-68
2022/08/31 00:30:50;;;;;;;4.03;2.90;;;;;;;21.66;57.79;99834.19;4316827;33;34651;-67
2022/08/31 00:33:17;;;;;;;3.30;2.60;;;;;;;21.74;57.44;99834.53;4331274;33;32994;-68
2022/08/31 00:35:45;;;;;;;4.62;2.70;;;;;;;21.37;58.46;99833.91;4332070;33;33983;-69
2022/08/31 00:38:13;;;;;;;4.55;2.90;;;;;;;21.59;58.06;99835.78;4318581;33;34364;-69
2022/08/31 00:40:44;;;;;;;3.78;2.30;;;;;;;21.45;58.34;99833.16;4332100;33;33895;-76
2022/08/31 00:43:37;;;;;;;3.55;2.37;;;;;;;21.56;58.19;99844.72;4331710;33;34331;-68
2022/08/31 00:46:05;;;;;;;3.50;2.30;;;;;;;21.40;58.36;99842.34;4318228;33;34467;-68
2022/08/31 00:48:34;;;;;;;3.72;2.72;;;;;;;21.47;58.19;99842.75;4331737;33;33632;-69
2022/08/31 00:51:02;;;;;;;4.12;2.78;;;;;;;21.63;57.80;99834.00;4318427;33;33566;-67
2022/08/31 00:53:30;;;;;;;5.07;3.17;;;;;;;21.43;58.33;99850.03;4331769;33;35044;-68
2022/08/31 00:55:58;;;;;;;6.35;2.95;;;;;;;21.47;58.14;99851.03;4318155;33;33819;-67
2022/08/31 00:58:25;;;;;;;4.22;2.67;;;;;;;21.63;57.73;99847.81;4318529;33;33838;-67
2022/08/31 01:00:53;;;;;;;3.20;2.47;;;;;;;21.21;59.12;99847.28;4331238;33;33984;-70
2022/08/31 01:03:21;;;;;;;4.00;2.58;;;;;;;21.42;58.80;99851.16;4331516;33;33881;-67
2022/08/31 01:05:49;;;;;;;3.95;2.78;;;;;;;21.52;58.45;99852.00;4318178;33;34358;-69
2022/08/31 01:08:17;;;;;;;4.43;2.53;;;;;;;21.52;58.47;99846.50;4331515;33;33902;-67
2022/08/31 01:10:53;;;;;;;4.75;2.85;;;;;;;21.47;58.71;99856.53;4331562;33;34048;-68
2022/08/31 01:13:21;;;;;;;3.70;2.70;;;;;;;21.19;59.76;99857.84;4331565;33;34078;-67
2022/08/31 01:15:56;;;;;;;4.32;2.67;;;;;;;21.31;59.31;99847.03;4308178;33;33733;-67
2022/08/31 01:18:24;;;;;;;3.87;2.55;;;;;;;21.38;59.17;99850.16;4317005;33;34294;-73
2022/08/31 01:20:59;;;;;;;4.18;2.75;;;;;;;21.13;59.94;99845.31;4316839;33;33985;-74
2022/08/31 01:23:41;;;;;;;4.82;2.55;;;;;;;21.38;59.27;99854.84;4316522;33;33842;-70
2022/08/31 01:26:12;;;;;;;4.65;2.67;;;;;;;21.56;58.57;99847.47;4303911;33;33576;-76
2022/08/31 01:28:40;;;;;;;7.37;2.92;;;;;;;21.12;60.08;99855.53;4303445;33;33314;-67
2022/08/31 01:31:13;;;;;;;4.87;2.78;;;;;;;21.38;59.18;99854.84;4317990;33;34604;-73
2022/08/31 01:33:40;;;;;;;4.15;2.62;;;;;;;20.89;60.80;99861.09;4303135;33;34220;-74
2022/08/31 01:36:09;;;;;;;7.65;2.62;;;;;;;20.90;60.87;99857.19;4316623;33;34840;-76
2022/08/31 01:38:43;;;;;;;4.55;3.03;;;;;;;21.00;60.37;99858.88;4316736;33;34493;-68
2022/08/31 01:41:10;;;;;;;4.72;2.87;;;;;;;21.28;59.52;99854.00;4316288;33;33838;-78
2022/08/31 01:43:40;;;;;;;3.92;2.62;;;;;;;21.10;60.09;99860.53;4305360;33;34008;-67
2022/08/31 01:46:11;;;;;;;5.32;3.08;;;;;;;20.92;60.59;99856.87;4317895;33;34055;-67
2022/08/31 01:48:42;;;;;;;4.25;2.85;;;;;;;20.48;62.01;99853.81;4318523;33;33951;-68
2022/08/31 01:51:11;;;;;;;4.97;3.45;;;;;;;20.04;63.40;99858.13;4305521;33;33880;-67
2022/08/31 01:53:40;;;;;;;4.60;3.12;;;;;;;20.20;62.88;99852.28;4318286;33;34194;-68
2022/08/31 01:56:13;;;;;;;3.75;2.70;;;;;;;20.41;62.32;99852.59;4310406;33;33768;-68
2022/08/31 01:58:40;;;;;;;5.57;3.00;;;;;;;19.93;63.51;99845.69;4333495;33;33253;-74
2022/08/31 02:01:12;;;;;;;5.75;3.00;;;;;;;20.49;61.81;99855.41;4333278;33;33688;-68
2022/08/31 02:04:01;;;;;;;4.20;2.90;;;;;;;20.55;61.73;99853.38;4332728;33;34349;-69
2022/08/31 02:06:29;;;;;;;4.68;2.90;;;;;;;20.50;61.57;99856.25;4319979;33;34884;-68
2022/08/31 02:08:57;;;;;;;5.00;3.10;;;;;;;20.30;62.36;99849.25;4333246;33;33425;-69
2022/08/31 02:11:25;;;;;;;4.70;2.85;;;;;;;20.31;62.50;99850.91;4330989;33;33994;-67
2022/08/31 02:13:52;;;;;;;4.97;3.00;;;;;;;20.36;62.43;99844.47;4332687;33;33759;-67
2022/08/31 02:16:20;;;;;;;4.07;3.05;;;;;;;20.08;63.04;99861.06;4333022;33;33504;-68
2022/08/31 02:18:47;;;;;;;5.87;3.20;;;;;;;20.21;62.84;99851.13;4333272;33;33693;-67
2022/08/31 02:21:15;;;;;;;4.78;3.20;;;;;;;20.55;61.56;99850.59;4320071;33;34551;-74
2022/08/31 02:23:43;;;;;;;4.80;3.15;;;;;;;20.53;61.75;99847.34;4332935;33;33927;-67
2022/08/31 02:26:11;;;;;;;4.68;3.22;;;;;;;20.40;61.98;99851.78;4318602;33;33858;-68
2022/08/31 02:28:39;;;;;;;4.70;2.87;;;;;;;20.35;62.44;99840.91;4305267;33;33418;-67
2022/08/31 02:31:07;;;;;;;4.72;3.22;;;;;;;20.11;63.09;99832.06;4318865;33;34041;-66
2022/08/31 02:33:36;;;;;;;4.87;3.03;;;;;;;20.18;62.98;99830.53;4318457;33;34115;-68
2022/08/31 02:36:05;;;;;;;5.65;3.17;;;;;;;20.49;61.63;99833.37;4318287;33;33671;-66
2022/08/31 02:38:34;;;;;;;3.58;2.58;;;;;;;20.49;60.99;99832.56;4317922;33;34163;-67
2022/08/31 02:41:02;;;;;;;4.53;2.95;;;;;;;19.79;63.22;99833.91;4318632;33;33377;-67
2022/08/31 02:43:30;;;;;;;3.97;2.80;;;;;;;20.01;62.65;99833.94;4304899;33;34503;-67
2022/08/31 02:45:57;;;;;;;4.93;2.85;;;;;;;19.85;62.98;99847.25;4304936;33;34515;-68
2022/08/31 02:48:26;;;;;;;3.80;2.92;;;;;;;20.23;60.82;99844.19;4318192;33;33346;-68
2022/08/31 02:50:53;;;;;;;4.20;2.72;;;;;;;19.62;62.68;99842.75;4325703;33;34033;-67
2022/08/31 02:53:22;;;;;;;3.50;2.40;;;;;;;19.76;62.76;99838.09;4332342;33;34275;-67
2022/08/31 02:55:50;;;;;;;4.62;3.15;;;;;;;20.30;61.40;99835.47;4332592;33;33731;-67
2022/08/31 02:58:18;;;;;;;4.82;2.80;;;;;;;19.77;62.67;99828.69;4332872;33;33640;-67
2022/08/31 03:00:51;;;;;;;4.15;2.62;;;;;;;19.81;62.85;99831.66;4332997;33;34730;-70
2022/08/31 03:03:19;;;;;;;3.47;2.58;;;;;;;19.69;62.84;99840.41;4332683;33;35104;-68
2022/08/31 03:05:48;;;;;;;3.95;2.87;;;;;;;19.80;62.65;99839.06;4331516;33;34025;-68
2022/08/31 03:08:16;;;;;;;3.95;2.50;;;;;;;19.91;62.42;99838.88;4333105;33;35071;-67
2022/08/31 03:10:45;;;;;;;4.37;2.95;;;;;;;19.90;62.18;99835.31;4332763;33;34779;-68
2022/08/31 03:13:12;;;;;;;4.07;2.80;;;;;;;19.86;62.31;99842.53;4332823;33;33996;-72
2022/08/31 03:15:42;;;;;;;4.30;2.90;;;;;;;20.12;61.35;99845.56;4332817;33;34181;-74
2022/08/31 03:18:10;;;;;;;3.97;2.90;;;;;;;20.12;61.06;99845.56;4332929;33;34357;-72
2022/08/31 03:20:38;;;;;;;4.45;3.05;;;;;;;20.20;60.83;99844.81;4331982;33;34184;-68
2022/08/31 03:23:08;;;;;;;4.20;3.00;;;;;;;20.15;61.56;99838.59;4332542;33;34019;-68
2022/08/31 03:25:36;;;;;;;4.80;2.75;;;;;;;19.85;62.61;99840.94;4332499;33;34661;-68
2022/08/31 03:28:06;;;;;;;3.80;2.58;;;;;;;19.94;61.55;99838.25;4332612;33;34201;-67
2022/08/31 03:30:34;;;;;;;4.25;2.97;;;;;;;19.59;62.64;99846.09;4319157;33;33705;-67
2022/08/31 03:33:02;;;;;;;4.70;3.05;;;;;;;19.94;61.56;99839.06;4332807;33;34409;-76
2022/08/31 03:35:30;;;;;;;4.62;2.80;;;;;;;19.96;61.54;99845.09;4321828;33;33741;-70
2022/08/31 03:37:57;;;;;;;5.07;2.97;;;;;;;20.17;60.67;99847.38;4315023;33;33204;-69
2022/08/31 03:40:25;;;;;;;3.70;2.78;;;;;;;19.97;60.87;99837.62;4316432;33;34885;-67
2022/08/31 03:42:53;;;;;;;5.05;3.12;;;;;;;19.25;63.43;99845.41;4316559;33;34701;-70
2022/08/31 03:45:20;;;;;;;5.25;3.05;;;;;;;19.40;63.05;99844.28;4316097;33;34602;-71
2022/08/31 03:47:48;;;;;;;4.18;2.83;;;;;;;19.18;63.92;99845.00;4317572;33;34262;-73
2022/08/31 03:50:16;;;;;;;3.80;2.83;;;;;;;19.51;63.07;99844.09;4316842;33;32790;-68
2022/08/31 03:52:45;;;;;;;4.05;3.00;;;;;;;19.36;64.11;99845.19;4316732;33;34822;-69
2022/08/31 03:55:12;;;;;;;4.40;2.80;;;;;;;19.20;64.20;99841.91;4316285;33;33374;-77
2022/08/31 03:57:40;;;;;;;4.28;2.87;;;;;;;19.32;63.67;99833.97;4316684;33;33540;-70
2022/08/31 04:00:08;;;;;;;4.95;3.15;;;;;;;19.30;63.49;99838.16;4320039;33;34501;-69
2022/08/31 04:02:39;;;;;;;5.20;2.92;;;;;;;19.67;62.30;99840.72;4303127;33;34296;-68
2022/08/31 04:05:16;;;;;;;4.22;3.10;;;;;;;19.97;60.89;99837.62;4331975;33;33755;-69
2022/08/31 04:07:55;;;;;;;4.60;3.30;;;;;;;19.83;61.45;99848.69;4332115;33;31891;-68
2022/08/31 04:10:30;;;;;;;4.10;2.90;;;;;;;19.78;61.73;99843.28;4327384;33;32027;-68
2022/08/31 04:13:04;;;;;;;6.22;3.65;;;;;;;19.59;62.82;99852.44;4320356;33;34331;-68
2022/08/31 04:15:35;;;;;;;5.72;2.83;;;;;;;19.30;63.40;99851.91;4324338;33;34064;-69
2022/08/31 04:18:05;;;;;;;5.12;3.45;;;;;;;19.46;62.94;99851.31;4317644;33;31783;-68
2022/08/31 04:20:37;;;;;;;3.95;2.92;;;;;;;18.69;65.14;99848.31;4305529;33;33773;-86
2022/08/31 04:23:05;;;;;;;4.75;3.20;;;;;;;19.11;63.96;99847.31;4316962;33;34395;-69
2022/08/31 04:25:37;;;;;;;5.68;3.10;;;;;;;19.10;64.10;99850.38;4314695;33;34134;-68
2022/08/31 04:28:07;;;;;;;4.47;2.95;;;;;;;18.90;64.72;99854.28;4303329;33;33510;-69
2022/08/31 04:30:39;;;;;;;4.12;2.90;;;;;;;19.24;63.74;99851.19;4314638;33;34087;-68
2022/08/31 04:33:08;;;;;;;4.72;3.08;;;;;;;19.37;63.51;99853.16;4310238;33;34259;-74
2022/08/31 04:35:38;;;;;;;4.15;2.97;;;;;;;19.49;62.78;99849.09;4314998;33;34055;-74
2022/08/31 04:38:06;;;;;;;5.43;3.40;;;;;;;19.70;63.31;99849.50;4316007;33;33495;-75
2022/08/31 04:40:37;;;;;;;3.95;3.03;;;;;;;19.54;64.12;99851.72;4316587;33;34097;-75
2022/08/31 04:43:06;;;;;;;4.25;3.08;;;;;;;19.37;64.56;99853.16;4317157;33;34238;-77
2022/08/31 04:45:34;;;;;;;4.35;2.87;;;;;;;20.04;62.36;99849.03;4316803;33;34690;-76
2022/08/31 04:48:02;;;;;;;4.85;2.83;;;;;;;19.88;63.15;99846.63;4316534;33;33429;-75
2022/08/31 04:50:30;;;;;;;4.60;3.03;;;;;;;19.90;63.49;99851.00;4303918;33;33984;-74
2022/08/31 04:53:05;;;;;;;5.05;3.12;;;;;;;20.53;60.76;99854.81;4316948;33;34062;-74
2022/08/31 04:55:33;;;;;;;4.03;3.00;;;;;;;20.49;61.60;99862.88;4314621;33;34245;-80
2022/08/31 04:58:00;;;;;;;4.12;3.03;;;;;;;20.55;61.81;99858.06;4316079;33;33407;-75
2022/08/31 05:00:28;;;;;;;3.97;2.90;;;;;;;20.78;60.94;99858.91;4316729;33;34763;-74
2022/08/31 05:02:57;;;;;;;4.78;2.80;;;;;;;20.98;59.43;99861.13;4316467;33;34536;-80
2022/08/31 05:05:25;;;;;;;5.25;2.90;;;;;;;20.97;59.87;99856.78;4316701;33;34673;-75
2022/08/31 05:07:53;;;;;;;4.32;2.85;;;;;;;20.94;59.95;99851.06;4317077;33;33527;-84
2022/08/31 05:10:22;;;;;;;4.25;3.10;;;;;;;21.12;61.10;99857.47;4316428;33;34616;-82
2022/08/31 05:12:51;;;;;;;4.50;3.08;;;;;;;21.70;58.00;99859.19;4314707;33;33918;-81
2022/08/31 05:15:19;;;;;;;4.25;2.72;;;;;;;21.89;56.24;99864.44;4313273;33;34511;-79
2022/08/31 05:17:47;;;;;;;4.20;2.85;;;;;;;21.95;56.75;99860.41;4330143;33;33322;-71
2022/08/31 05:20:14;;;;;;;5.78;3.15;;;;;;;22.19;55.98;99867.44;4319843;33;33824;-74
2022/08/31 05:22:42;;;;;;;4.90;2.92;;;;;;;21.90;56.51;99863.34;4325501;33;34150;-76
2022/08/31 05:25:09;;;;;;;4.35;2.67;;;;;;;22.45;54.88;99864.69;4299288;33;33682;-77
2022/08/31 05:27:38;;;;;;;4.05;2.75;;;;;;;22.45;54.03;99867.47;4310547;33;33222;-70
2022/08/31 05:30:07;;;;;;;6.35;2.85;;;;;;;22.60;53.83;99864.22;4317352;33;33441;-75
2022/08/31 05:32:35;;;;;;;3.15;2.47;;;;;;;22.64;54.41;99870.72;4305134;33;34314;-72
2022/08/31 05:35:06;;;;;;;3.58;2.28;;;;;;;22.65;54.71;99866.78;4318515;33;34005;-72
2022/08/31 05:37:33;;;;;;;5.50;2.53;;;;;;;22.74;53.98;99872.31;4318486;33;33228;-70
2022/08/31 05:40:01;;;;;;;9.13;6.87;;;;;;;22.85;53.18;99872.78;4304983;33;34807;-72
2022/08/31 05:42:29;;;;;;;4.90;2.72;;;;;;;23.31;50.84;99871.25;4318497;33;34720;-75
2022/08/31 05:44:57;;;;;;;4.20;2.25;;;;;;;23.58;51.60;99871.94;4303782;33;33630;-69
2022/08/31 05:47:24;;;;;;;3.40;2.30;;;;;;;23.66;48.46;99869.13;4317086;33;34319;-70
2022/08/31 05:49:52;;;;;;;2.92;1.90;;;;;;;23.74;47.75;99867.47;4317547;33;34755;-70
2022/08/31 05:52:20;;;;;;;4.25;2.17;;;;;;;23.64;46.58;99867.84;4305831;33;34268;-71
2022/08/31 05:54:51;;;;;;;2.67;2.10;;;;;;;23.58;48.88;99869.97;4291209;33;34198;-72
2022/08/31 05:57:19;;;;;;;3.53;2.50;;;;;;;23.88;47.60;99865.28;4305761;33;34361;-70
2022/08/31 05:59:53;;;;;;;3.33;2.22;;;;;;;24.26;47.38;99867.16;4318612;33;33844;-73
2022/08/31 06:02:21;;;;;;;5.00;2.28;;;;;;;23.75;48.45;99864.37;4317811;33;34150;-71
2022/08/31 06:04:50;;;;;;;3.30;2.25;;;;;;;23.90;47.02;99871.31;4319231;33;34483;-76
2022/08/31 06:07:18;;;;;;;3.55;2.65;;;;;;;24.12;48.35;99867.41;4319668;33;33331;-77
2022/08/31 06:09:46;;;;;;;4.07;2.40;;;;;;;23.72;49.11;99873.34;4305717;33;34025;-72
2022/08/31 06:12:16;;;;;;;4.90;2.45;;;;;;;23.78;48.89;99882.31;4305111;33;35208;-72
2022/08/31 06:14:44;;;;;;;4.00;2.60;;;;;;;24.02;47.68;99890.00;4305349;33;34770;-72
2022/08/31 06:17:16;;;;;;;3.58;2.37;;;;;;;24.58;48.55;99886.16;4313978;33;34268;-70
2022/08/31 06:19:44;;;;;;;4.03;2.53;;;;;;;24.51;46.92;99890.31;4319355;33;34650;-70
2022/08/31 06:22:11;;;;;;;4.53;2.72;;;;;;;24.11;47.23;99887.97;4319107;33;33917;-69
2022/08/31 06:24:39;;;;;;;5.30;2.53;;;;;;;24.19;47.59;99883.53;4315766;33;34085;-69
2022/08/31 06:27:07;;;;;;;6.03;2.72;;;;;;;23.99;47.93;99879.56;4316223;33;32085;-68
2022/08/31 06:29:35;;;;;;;3.47;2.58;;;;;;;23.22;49.56;99887.88;4318310;33;34016;-69
2022/08/31 06:32:08;;;;;;;3.72;2.70;;;;;;;23.98;48.10;99882.69;4311139;33;34282;-68
2022/08/31 06:34:38;;;;;;;3.15;2.17;;;;;;;23.99;48.11;99885.09;4304251;33;34285;-68
2022/08/31 06:37:09;;;;;;;5.03;2.50;;;;;;;23.93;47.44;99881.75;4305440;33;34413;-67
2022/08/31 06:39:46;;;;;;;3.97;2.30;;;;;;;23.64;47.92;99888.03;4301257;33;34080;-69
2022/08/31 06:42:14;;;;;;;3.92;2.70;;;;;;;23.92;46.46;99874.56;4318978;33;35033;-69
2022/08/31 06:44:44;;;;;;;3.33;2.17;;;;;;;23.99;46.43;99887.88;4305941;33;34036;-80
2022/08/31 06:47:12;;;;;;;3.65;2.25;;;;;;;24.32;45.45;99882.44;4319066;33;32939;-68
2022/08/31 06:49:40;;;;;;;3.47;2.25;;;;;;;24.67;45.01;99881.38;4305951;33;33923;-68
2022/08/31 06:52:08;;;;;;;3.45;2.50;;;;;;;24.40;45.17;99883.50;4304753;33;33904;-77
2022/08/31 06:54:35;;;;;;;3.62;2.25;;;;;;;24.50;44.58;99882.34;4318689;33;33994;-68
2022/08/31 06:57:15;;;;;;;3.33;2.35;;;;;;;24.63;43.82;99886.78;4319227;33;32114;-86
2022/08/31 06:59:44;;;;;;;3.87;2.15;;;;;;;24.46;44.44;99893.25;4315979;33;33622;-82
2022/08/31 07:02:12;;;;;;;3.25;2.37;;;;;;;23.93;45.61;99891.97;4304270;33;34132;-81
2022/08/31 07:04:40;;;;;;;3.20;2.30;;;;;;;24.37;44.13;99903.63;4305493;33;34857;-85
2022/08/31 07:07:10;;;;;;;4.68;2.58;;;;;;;24.08;48.10;99899.75;4304898;33;33445;-70
2022/08/31 07:09:39;;;;;;;4.70;2.60;;;;;;;23.99;44.65;99893.41;4315161;33;33951;-81
2022/08/31 07:12:07;;;;;;;3.47;2.17;;;;;;;23.75;47.18;99900.41;4313857;33;34143;-69
2022/08/31 07:14:36;;;;;;;2.97;2.12;;;;;;;23.68;45.98;99902.84;4315384;33;34039;-76
2022/08/31 07:17:04;;;;;;;3.97;2.42;;;;;;;23.88;45.21;99906.84;4311437;33;33688;-75
2022/08/31 07:19:32;;;;;;;3.20;2.12;;;;;;;24.37;44.80;99900.84;4317881;33;33758;-73
2022/08/31 07:22:03;;;;;;;3.25;2.37;;;;;;;24.37;46.34;99901.66;4316850;33;34321;-74
2022/08/31 07:24:33;;;;;;;4.78;2.67;;;;;;;23.87;45.50;99904.44;4304186;33;34743;-80
2022/08/31 07:27:09;;;;;;;4.82;2.53;;;;;;;23.43;46.92;99899.03;4317234;33;33794;-72
2022/08/31 07:29:41;;;;;;;2.83;2.00;;;;;;;23.63;47.18;99913.28;4312036;33;34838;-73
2022/08/31 07:32:11;;;;;;;3.62;2.50;;;;;;;24.10;46.42;99902.16;4298345;33;34029;-75
2022/08/31 07:34:39;;;;;;;2.92;1.98;;;;;;;24.39;44.58;99904.09;4325890;33;33772;-73
2022/08/31 07:42:43;;;;;;;3.62;2.25;;;;;;;24.91;44.64;99905.62;4319288;33;34220;-73
2022/08/31 07:45:21;;;;;;;4.28;2.25;;;;;;;25.43;42.17;99902.31;4317074;33;34758;-75
2022/08/31 07:47:51;;;;;;;4.32;2.65;;;;;;;25.44;42.50;99894.78;4314597;33;34351;-89
2022/08/31 07:50:20;;;;;;;3.42;2.20;;;;;;;25.37;41.90;99898.12;4318051;33;34253;-90
2022/08/31 07:52:53;;;;;;;3.75;2.20;;;;;;;25.46;42.18;99889.69;4314466;33;35054;-74
2022/08/31 07:55:27;;;;;;;3.72;2.00;;;;;;;25.19;42.44;99891.94;4304306;33;32552;-70
2022/08/31 07:57:56;;;;;;;3.75;2.33;;;;;;;25.79;42.05;99884.06;4304185;33;33409;-94
2022/08/31 08:00:27;;;;;;;2.33;2.03;;;;;;;25.08;43.03;99890.78;4312577;33;34822;-79
2022/08/31 08:03:00;;;;;;;4.45;2.60;;;;;;;24.20;44.52;99892.66;4305693;33;34117;-82
2022/08/31 08:05:36;;;;;;;3.20;2.30;;;;;;;24.48;44.47;99898.47;4304633;33;33603;-85
2022/08/31 08:08:06;;;;;;;3.55;1.90;;;;;;;24.39;43.81;99892.19;4310054;33;33536;-83
2022/08/31 08:10:42;;;;;;;3.33;2.30;;;;;;;24.80;43.13;99882.25;4307406;33;34080;-78
2022/08/31 08:13:18;;;;;;;3.12;2.05;;;;;;;25.36;41.05;99886.22;4307469;33;34021;-76
2022/08/31 08:15:49;;;;;;;4.15;2.50;;;;;;;25.56;41.96;99881.72;4316992;33;34211;-79
2022/08/31 08:18:19;;;;;;;3.65;2.35;;;;;;;25.12;42.19;99881.41;4313746;33;33140;-81
2022/08/31 08:20:47;;;;;;;3.22;2.20;;;;;;;24.71;42.25;99880.34;4316122;33;33961;-83
2022/08/31 08:23:16;;;;;;;3.47;2.20;;;;;;;25.17;41.34;99877.59;4302657;33;33721;-85
2022/08/31 08:25:45;;;;;;;3.12;2.20;;;;;;;25.01;41.19;99884.94;4317798;33;34390;-95
2022/08/31 08:28:19;;;;;;;3.08;2.05;;;;;;;24.67;40.31;99876.63;4317195;33;32866;-88
2022/08/31 08:31:12;;;;;;;3.37;2.10;;;;;;;24.52;43.07;99869.75;4306169;33;33692;-87
2022/08/31 08:33:39;;;;;;;3.10;2.10;;;;;;;24.86;41.36;99878.91;4331756;33;34130;-90
2022/08/31 08:36:07;;;;;;;3.37;2.00;;;;;;;25.23;40.12;99872.69;4316584;33;33977;-90
2022/08/31 08:38:38;;;;;;;3.03;1.98;;;;;;;24.82;41.53;99874.38;4317070;33;33680;-82
2022/08/31 08:41:11;;;;;;;2.62;2.22;;;;;;;25.26;42.71;99875.56;4316757;33;33914;-89
2022/08/31 08:43:43;;;;;;;4.22;2.33;;;;;;;25.09;39.60;99878.50;4303795;33;34185;-95
2022/08/31 08:46:26;;;;;;;4.30;2.28;;;;;;;24.61;41.31;99868.88;4316940;33;34663;-71
2022/08/31 08:49:22;;;;;;;2.83;2.00;;;;;;;24.56;42.13;99870.69;4323763;33;34195;-72
2022/08/31 08:51:55;;;;;;;3.50;2.00;;;;;;;25.29;40.69;99862.94;4317545;33;34237;-72
2022/08/31 08:54:35;;;;;;;3.05;2.30;;;;;;;25.18;40.10;99857.81;4318108;33;34287;-77
2022/08/31 08:57:22;;;;;;;3.17;2.15;;;;;;;25.18;40.88;99859.78;4331258;33;34976;-77
2022/08/31 08:59:53;;;;;;;3.37;2.10;;;;;;;25.55;41.37;99862.63;4325162;33;34891;-70
2022/08/31 09:02:34;;;;;;;4.03;2.28;;;;;;;24.88;41.25;99862.72;4302930;33;34249;-70
2022/08/31 09:05:38;;;;;;;3.00;1.95;;;;;;;25.84;39.72;99872.69;4316395;33;33924;-85
2022/08/31 09:08:27;;;;;;;4.72;2.17;;;;;;;25.90;37.84;99857.44;4296609;33;34251;-68
2022/08/31 09:11:17;;;;;;;5.32;2.08;;;;;;;25.49;40.23;99856.50;4315915;33;33757;-73
2022/08/31 09:14:06;;;;;;;2.60;2.00;;;;;;;26.27;38.89;99864.91;4319356;33;34802;-71
2022/08/31 09:17:32;;;;;;;2.92;1.90;;;;;;;25.86;37.64;99852.91;4328283;33;34182;-75
2022/08/31 09:20:04;;;;;;;3.22;1.95;;;;;;;26.02;38.28;99848.25;4269918;33;33750;-83
2022/08/31 09:22:54;;;;;;;2.50;2.03;;;;;;;26.19;38.61;99855.53;4270650;33;33339;-72
2022/08/31 09:25:37;;;;;;;3.12;2.12;;;;;;;26.30;37.80;99847.50;4292508;33;33493;-69
2022/08/31 09:28:07;;;;;;;3.47;2.42;;;;;;;26.07;37.97;99838.84;4302843;33;34983;-77
2022/08/31 09:30:43;;;;;;;3.22;2.30;;;;;;;26.05;38.74;99842.00;4303647;33;33915;-73
2022/08/31 09:33:25;;;;;;;3.62;2.10;;;;;;;25.96;38.13;99833.81;4316977;33;34362;-71
2022/08/31 09:36:12;;;;;;;3.70;2.03;;;;;;;25.10;38.21;99835.72;4303756;33;33519;-71
2022/08/31 09:38:42;;;;;;;2.92;2.03;;;;;;;25.73;37.68;99829.88;4303873;33;33850;-72
2022/08/31 09:41:28;;;;;;;3.72;2.10;;;;;;;25.76;38.22;99832.72;4303383;33;33750;-78
2022/08/31 09:44:20;;;;;;;3.53;1.95;;;;;;;25.31;38.69;99824.53;4306147;33;34135;-80
2022/08/31 09:46:53;;;;;;;3.05;2.20;;;;;;;25.93;36.89;99822.56;4314612;33;34771;-79
2022/08/31 09:49:25;;;;;;;2.08;1.87;;;;;;;26.39;37.62;99820.34;4303374;33;35658;-82
2022/08/31 09:52:17;;;;;;;3.70;2.12;;;;;;;26.52;38.90;99819.16;4313593;33;33853;-80
2022/08/31 09:55:16;;;;;;;3.30;2.17;;;;;;;26.21;37.71;99819.81;4300377;33;34407;-75
2022/08/31 09:58:03;;;;;;;3.15;1.95;;;;;;;26.40;37.46;99822.78;4314399;33;34852;-81
2022/08/31 10:00:35;;;;;;;4.53;2.05;;;;;;;26.83;36.59;99819.59;4317008;33;33876;-80
2022/08/31 10:03:27;;;;;;;4.50;2.20;;;;;;;26.69;36.28;99814.44;4317465;33;34993;-79
2022/08/31 10:05:55;;;;;;;3.28;2.17;;;;;;;26.93;35.64;99817.09;4306199;33;33568;-74
2022/08/31 10:08:55;;;;;;;4.30;2.40;;;;;;;26.64;36.99;99809.94;4318393;33;34799;-78
2022/08/31 10:11:25;;;;;;;3.25;2.08;;;;;;;27.00;37.65;99805.34;4318875;33;35005;-68
2022/08/31 10:13:59;;;;;;;3.83;2.00;;;;;;;27.08;36.94;99800.75;4304279;33;33688;-78
2022/08/31 10:16:51;;;;;;;5.28;2.10;;;;;;;27.08;36.20;99806.31;4305800;33;34393;-80
2022/08/31 10:19:50;;;;;;;3.22;2.03;;;;;;;26.72;36.03;99795.06;4306210;33;33861;-77
2022/08/31 10:22:27;;;;;;;3.70;2.12;;;;;;;26.94;35.74;99792.84;4306950;33;33878;-68
2022/08/31 10:25:11;;;;;;;3.37;2.15;;;;;;;26.86;34.69;99793.81;4318528;33;33959;-76
2022/08/31 10:27:47;;;;;;;3.60;2.08;;;;;;;27.68;34.65;99786.69;4300879;33;33464;-73
2022/08/31 10:30:30;;;;;;;3.22;2.17;;;;;;;27.55;34.67;99774.84;4324024;33;34694;-72
2022/08/31 10:33:10;;;;;;;3.92;1.95;;;;;;;27.87;33.67;99775.59;4301609;33;34267;-75
2022/08/31 10:35:56;;;;;;;3.90;2.08;;;;;;;27.38;33.72;99784.41;4320271;33;34171;-77
2022/08/31 10:38:30;;;;;;;3.03;1.98;;;;;;;27.65;33.83;99771.50;4302711;33;33317;-77
2022/08/31 10:41:17;;;;;;;2.35;1.70;;;;;;;27.58;34.69;99774.94;4304252;33;33966;-66
2022/08/31 10:44:25;;;;;;;2.75;1.90;;;;;;;27.30;35.90;99771.47;4304045;33;34346;-69
2022/08/31 10:46:57;;;;;;;2.35;1.80;;;;;;;27.92;35.45;99766.16;4291728;33;33923;-70
2022/08/31 10:49:25;;;;;;;4.28;2.08;;;;;;;27.94;34.03;99750.66;4295343;33;33447;-91
2022/08/31 10:52:01;;;;;;;3.12;2.17;;;;;;;27.46;35.08;99763.09;4303931;33;33927;-69
2022/08/31 10:54:49;;;;;;;3.00;2.00;;;;;;;26.78;35.36;99762.19;4303853;33;34259;-66
2022/08/31 10:57:28;;;;;;;3.60;2.03;;;;;;;27.15;35.36;99764.75;4304826;33;34120;-82
2022/08/31 11:00:40;;;;;;;2.75;1.65;;;;;;;27.31;34.91;99759.19;4310973;33;33593;-74
2022/08/31 11:03:24;;;;;;;3.30;2.00;;;;;;;26.95;34.34;99759.06;4307716;33;33937;-78
2022/08/31 11:05:59;;;;;;;3.15;2.12;;;;;;;27.11;34.85;99752.69;4296685;33;34815;-67
2022/08/31 11:08:33;;;;;;;3.67;2.00;;;;;;;27.74;35.47;99760.16;4300002;33;34669;-65
2022/08/31 11:11:04;;;;;;;2.50;1.85;;;;;;;27.73;33.76;99748.22;4292656;33;33132;-79
2022/08/31 11:13:50;;;;;;;2.65;2.15;;;;;;;27.65;34.01;99748.41;4315505;33;34763;-75
2022/08/31 11:16:52;;;;;;;2.15;1.80;;;;;;;27.32;34.39;99755.19;4315356;33;33790;-79
2022/08/31 11:19:59;;;;;;;2.78;1.85;;;;;;;28.15;33.05;99743.91;4279554;33;213997;-66
2022/08/31 11:22:39;;;;;;;3.00;1.95;;;;;;;27.34;33.73;99748.13;4317191;33;33453;-71
2022/08/31 11:25:46;;;;;;;3.37;2.30;;;;;;;27.70;33.47;99736.97;4317072;33;33649;-67
2022/08/31 11:28:32;;;;;;;2.28;1.70;;;;;;;28.20;35.16;99735.25;4303515;33;33960;-71
2022/08/31 11:31:05;;;;;;;2.75;1.92;;;;;;;28.58;35.13;99725.25;4301281;33;34228;-82
2022/08/31 11:33:33;;;;;;;5.82;2.00;;;;;;;28.11;32.50;99735.47;4313695;33;33284;-71
2022/08/31 11:36:09;;;;;;;3.25;1.98;;;;;;;27.84;33.04;99723.34;4323251;33;35026;-67
2022/08/31 11:39:02;;;;;;;3.87;2.30;;;;;;;27.85;33.37;99716.63;4321191;33;35893;-71
2022/08/31 11:41:29;;;;;;;2.70;1.80;;;;;;;27.54;33.24;99717.53;4331640;33;33843;-76
2022/08/31 11:44:03;;;;;;;3.72;2.30;;;;;;;28.60;32.00;99711.72;4331841;33;33519;-68
2022/08/31 11:46:33;;;;;;;2.65;2.15;;;;;;;29.20;31.51;99713.91;4331858;33;33745;-75
2022/08/31 11:49:01;;;;;;;3.12;1.92;;;;;;;29.45;32.47;99717.09;4332285;33;34132;-77
2022/08/31 11:51:32;;;;;;;3.67;2.25;;;;;;;28.43;32.39;99716.56;4331573;33;34226;-68
2022/08/31 11:54:25;;;;;;;4.97;2.45;;;;;;;28.15;33.01;99710.44;4331663;33;34393;-82
2022/08/31 11:56:55;;;;;;;2.90;2.10;;;;;;;27.54;32.97;99715.53;4331392;33;33963;-70
2022/08/31 11:59:30;;;;;;;3.53;2.30;;;;;;;28.07;33.00;99701.13;4329671;33;34964;-81
2022/08/31 12:02:18;;;;;;;2.90;2.00;;;;;;;27.74;33.55;99715.56;4315814;33;34178;-77
2022/08/31 12:04:52;;;;;;;2.85;1.98;;;;;;;27.83;33.26;99716.16;4317295;33;33056;-79
2022/08/31 12:07:38;;;;;;;3.42;2.03;;;;;;;28.03;32.48;99722.56;4306153;33;34657;-76
2022/08/31 12:10:07;;;;;;;2.75;2.05;;;;;;;28.41;32.82;99706.97;4303816;33;34204;-76
2022/08/31 12:12:56;;;;;;;3.55;2.20;;;;;;;28.30;32.39;99711.53;4303739;33;33831;-68